Time;durP1;ratioP1;P1;durP2;ratioP2;P2;SDS_P1;SDS_P2;PMS_P1;PMS_P2;Temp;Humidity;BMP_temperature;BMP_pressure;BME280_temperature;BME280_humidity;BME280_pressure;Samples;Min_cycle;Max_cycle;Signal;HPM_P1;HPM_P2
2022/01/19 00:02:53;;;;;;;41.90;19.60;;;;;;;0.08;81.21;101370.27;207211;1317;139444;-67
2022/01/19 00:07:56;;;;;;;38.70;20.20;;;;;;;0.08;81.32;101371.33;207786;1319;142752;-67
2022/01/19 00:13:06;;;;;;;42.80;22.60;;;;;;;0.09;81.63;101367.44;208161;1318;149230;-69
2022/01/19 00:18:09;;;;;;;48.70;22.60;;;;;;;0.08;81.43;101374.00;207269;1318;139924;-68
2022/01/19 00:23:15;;;;;;;49.90;22.70;;;;;;;0.03;81.39;101357.79;207097;1318;141719;-66
2022/01/19 00:28:20;;;;;;;53.10;23.10;;;;;;;-0.04;81.56;101347.14;206853;1317;141020;-66
2022/01/19 00:33:24;;;;;;;42.80;20.50;;;;;;;-0.04;81.37;101328.48;207703;1316;141987;-66
2022/01/19 00:38:27;;;;;;;43.60;22.40;;;;;;;-0.03;81.38;101321.43;207704;1317;140609;-64
2022/01/19 00:43:31;;;;;;;47.20;21.70;;;;;;;-0.07;81.60;101328.73;208292;1313;140251;-67
2022/01/19 00:48:35;;;;;;;47.70;20.60;;;;;;;-0.13;81.71;101326.23;208150;1315;140508;-65
2022/01/19 00:53:38;;;;;;;43.90;19.00;;;;;;;-0.14;81.57;101332.96;207235;1316;141873;-65
2022/01/19 00:58:42;;;;;;;47.20;18.80;;;;;;;-0.11;81.41;101333.09;207762;1318;140934;-66
2022/01/19 01:03:46;;;;;;;39.30;17.50;;;;;;;-0.11;81.54;101321.87;207321;1317;140393;-66
2022/01/19 01:08:49;;;;;;;35.80;17.10;;;;;;;-0.07;81.49;101318.97;207288;1317;142800;-65
2022/01/19 01:19:01;;;;;;;30.50;15.10;;;;;;;-0.11;81.82;101300.87;207396;1318;141301;-67
2022/01/19 01:24:04;;;;;;;25.30;12.40;;;;;;;-0.09;81.46;101293.58;206884;1319;140377;-66
2022/01/19 01:29:07;;;;;;;31.90;15.40;;;;;;;-0.06;81.73;101281.80;208474;1318;141669;-65
2022/01/19 01:34:10;;;;;;;27.90;14.10;;;;;;;0.00;82.00;101257.33;208721;1318;139696;-66
2022/01/19 01:39:13;;;;;;;33.90;16.00;;;;;;;0.06;81.82;101251.77;209542;1319;140704;-68
2022/01/19 01:44:16;;;;;;;25.80;14.50;;;;;;;0.10;81.79;101241.62;209767;1317;142576;-66
2022/01/19 01:49:42;;;;;;;29.40;14.00;;;;;;;0.19;81.63;101232.09;209445;1316;141461;-66
2022/01/19 01:54:48;;;;;;;26.20;12.00;;;;;;;0.28;81.39;101216.18;208823;1317;140332;-67
2022/01/19 01:59:54;;;;;;;26.30;12.10;;;;;;;0.28;81.17;101204.93;207661;1317;656060;-65
2022/01/19 02:04:57;;;;;;;22.90;10.80;;;;;;;0.26;81.51;101185.52;207560;1320;139713;-69
2022/01/19 02:10:03;;;;;;;21.50;11.40;;;;;;;0.29;81.34;101188.97;208436;1317;140679;-68
2022/01/19 02:25:59;;;;;;;29.10;13.30;;;;;;;0.33;81.59;101192.93;207332;1317;140908;-67
2022/01/19 02:31:50;;;;;;;19.60;9.60;;;;;;;0.36;81.56;101178.36;206883;1316;141466;-65
2022/01/19 02:36:50;;;;;;;20.90;10.60;;;;;;;0.36;81.80;101165.77;207255;1320;139511;-66
2022/01/19 02:41:58;;;;;;;18.00;9.10;;;;;;;0.34;81.95;101159.25;207562;1319;138995;-67
2022/01/19 02:52:22;;;;;;;20.90;10.20;;;;;;;0.36;81.94;101140.45;207513;1320;140343;-67
2022/01/19 02:57:40;;;;;;;;;;;;;;;;;;;;;
2022/01/19 03:13:35;;;;;;;18.90;8.80;;;;;;;0.36;82.01;101083.97;208333;1318;140037;-68
2022/01/19 03:18:38;;;;;;;14.20;7.20;;;;;;;0.41;82.12;101072.85;207746;1316;140974;-67
2022/01/19 03:23:41;;;;;;;17.40;9.40;;;;;;;0.41;82.02;101067.41;207742;1320;140372;-67
2022/01/19 03:28:44;;;;;;;15.00;7.90;;;;;;;0.42;82.34;101062.61;207839;1316;139697;-68
2022/01/19 03:33:47;;;;;;;16.90;8.50;;;;;;;0.43;82.55;101057.44;208846;1317;140363;-68
2022/01/19 03:38:50;;;;;;;15.50;7.90;;;;;;;0.46;82.27;101047.92;209050;1316;140409;-69
2022/01/19 03:43:53;;;;;;;13.50;7.30;;;;;;;0.48;82.15;101038.07;208569;1322;140369;-69
2022/01/19 03:48:58;;;;;;;26.70;9.40;;;;;;;0.51;82.17;101036.11;207093;1316;140454;-67
2022/01/19 03:54:01;;;;;;;20.90;7.50;;;;;;;0.49;82.06;101020.92;207851;1320;141544;-68
2022/01/19 03:59:03;;;;;;;19.60;9.60;;;;;;;0.44;81.90;101011.72;207913;1317;141066;-68
2022/01/19 04:09:16;;;;;;;14.40;8.50;;;;;;;0.43;82.29;101007.27;207300;1318;141062;-67
2022/01/19 04:14:22;;;;;;;11.00;7.20;;;;;;;0.42;82.41;101001.23;208168;1318;140206;-67
2022/01/19 04:19:48;;;;;;;15.70;8.40;;;;;;;0.44;82.51;100982.84;207244;1324;141614;-67
2022/01/19 04:24:56;;;;;;;15.20;8.30;;;;;;;0.50;82.47;100974.61;207545;1318;140783;-68
2022/01/19 04:30:28;;;;;;;14.30;8.80;;;;;;;0.52;82.70;100970.11;207325;1318;139387;-67
2022/01/19 04:35:43;;;;;;;12.60;7.20;;;;;;;0.51;82.63;100968.02;208135;1317;139378;-67
2022/01/19 04:47:03;;;;;;;18.80;7.90;;;;;;;0.51;82.32;100956.72;207137;1317;140832;-69
2022/01/19 05:03:27;;;;;;;17.20;8.20;;;;;;;0.60;82.64;100941.52;207867;1317;140203;-69
2022/01/19 05:08:14;;;;;;;16.80;8.30;;;;;;;0.67;82.82;100935.73;206731;1318;139663;-67
2022/01/19 05:13:26;;;;;;;16.40;8.40;;;;;;;0.71;82.64;100926.17;207412;1318;140469;-66
2022/01/19 05:18:35;;;;;;;21.10;8.20;;;;;;;0.72;82.73;100922.01;208290;1314;139930;-67
2022/01/19 05:23:42;;;;;;;10.00;6.70;;;;;;;0.74;82.95;100915.23;207069;1317;142162;-69
2022/01/19 05:28:47;;;;;;;17.60;9.40;;;;;;;0.78;83.11;100910.11;207406;1317;140712;-69
2022/01/19 05:33:50;;;;;;;8.30;5.40;;;;;;;0.82;82.93;100914.41;208143;1319;140530;-69
2022/01/19 05:38:52;;;;;;;13.90;8.30;;;;;;;0.82;83.10;100912.70;209003;1320;139715;-68
2022/01/19 05:43:55;;;;;;;17.30;6.60;;;;;;;0.86;82.95;100908.16;207233;1318;139908;-70
2022/01/19 05:49:01;;;;;;;11.40;4.40;;;;;;;0.96;82.93;100907.47;208331;1317;140918;-70
2022/01/19 05:54:05;;;;;;;10.60;8.40;;;;;;;1.00;83.03;100907.82;208791;1317;139506;-70
2022/01/19 05:59:07;;;;;;;9.60;6.60;;;;;;;1.01;82.84;100902.67;208825;1319;139700;-68
2022/01/19 06:04:23;;;;;;;15.20;7.40;;;;;;;1.03;82.87;100904.41;209052;1318;139964;-69
2022/01/19 06:14:43;;;;;;;18.30;9.90;;;;;;;1.15;83.00;100898.14;208860;1317;141188;-69
2022/01/19 06:19:50;;;;;;;12.80;6.00;;;;;;;1.21;82.93;100888.72;208337;1316;140659;-70
2022/01/19 06:24:55;;;;;;;21.80;6.90;;;;;;;1.21;82.82;100878.00;208625;1317;140104;-71
2022/01/19 06:29:58;;;;;;;12.70;6.70;;;;;;;1.27;82.81;100869.51;207483;1317;140578;-69
2022/01/19 06:35:03;;;;;;;10.40;6.00;;;;;;;1.28;83.03;100857.17;208068;1319;141047;-72
2022/01/19 06:40:13;;;;;;;9.90;5.90;;;;;;;1.28;82.96;100852.84;207567;1317;141388;-72
2022/01/19 06:45:19;;;;;;;15.60;6.80;;;;;;;1.27;82.78;100857.40;207122;1316;140996;-68
2022/01/19 06:50:25;;;;;;;17.80;8.80;;;;;;;1.32;83.05;100853.62;207393;1316;139840;-67
2022/01/19 06:55:29;;;;;;;13.60;7.90;;;;;;;1.33;82.93;100843.88;207393;1316;140239;-68
2022/01/19 07:00:32;;;;;;;11.30;7.60;;;;;;;1.31;83.14;100846.67;207127;1316;139609;-66
2022/01/19 07:05:36;;;;;;;11.30;7.40;;;;;;;1.36;83.05;100843.59;207403;1316;141894;-67
2022/01/19 07:10:46;;;;;;;16.90;8.00;;;;;;;1.40;83.11;100827.30;207276;1317;139154;-67
2022/01/19 07:15:50;;;;;;;20.80;7.80;;;;;;;1.43;83.41;100812.48;207126;1317;140133;-67
2022/01/19 07:20:53;;;;;;;20.70;8.50;;;;;;;1.43;82.92;100812.63;208119;1317;139445;-68
2022/01/19 07:26:00;;;;;;;15.30;8.50;;;;;;;1.48;82.86;100804.23;207844;1318;140274;-69
2022/01/19 07:31:06;;;;;;;15.10;7.70;;;;;;;1.56;82.85;100806.65;207133;1318;141510;-70
2022/01/19 07:36:13;;;;;;;13.80;6.40;;;;;;;1.55;82.72;100791.27;208209;1316;142377;-71
2022/01/19 07:41:18;;;;;;;10.90;6.80;;;;;;;1.57;82.94;100781.80;207018;1316;140036;-69
2022/01/19 07:46:21;;;;;;;19.80;11.00;;;;;;;1.64;83.07;100779.89;208325;1316;140501;-69
2022/01/19 07:51:24;;;;;;;9.10;4.50;;;;;;;1.70;82.84;100777.38;209027;1317;140069;-71
2022/01/19 07:56:31;;;;;;;34.50;12.70;;;;;;;1.76;82.81;100777.14;208510;1315;139213;-71
2022/01/19 08:01:53;;;;;;;;;;;;;;;;;;;;;
2022/01/19 08:07:01;;;;;;;17.60;8.30;;;;;;;1.91;82.76;100772.84;209482;1315;139601;-70
2022/01/19 08:12:04;;;;;;;15.70;9.30;;;;;;;1.93;82.69;100773.28;208483;1315;140036;-70
2022/01/19 08:17:12;;;;;;;19.60;9.50;;;;;;;2.01;82.55;100769.70;208618;1316;139829;-71
2022/01/19 08:22:17;;;;;;;13.40;8.70;;;;;;;2.10;82.69;100770.25;207605;1317;139439;-70
2022/01/19 08:27:20;;;;;;;21.00;11.00;;;;;;;2.14;82.68;100765.08;208003;1317;139453;-68
2022/01/19 08:32:23;;;;;;;19.20;10.70;;;;;;;2.17;82.22;100749.03;208306;1316;139714;-70
2022/01/19 08:37:37;;;;;;;16.90;12.40;;;;;;;2.16;82.23;100748.38;207313;1318;140836;-72
2022/01/19 08:42:49;;;;;;;17.20;10.10;;;;;;;2.11;82.12;100750.66;207293;1316;140485;-71
2022/01/19 08:47:53;;;;;;;24.10;11.30;;;;;;;2.11;81.95;100742.41;207394;1316;141759;-69
2022/01/19 08:53:19;;;;;;;23.30;13.30;;;;;;;2.11;82.18;100734.20;207665;1316;139746;-71
2022/01/19 08:58:32;;;;;;;17.20;10.50;;;;;;;2.06;82.20;100730.30;208019;1317;140447;-72
2022/01/19 09:03:35;;;;;;;23.10;11.80;;;;;;;2.09;82.52;100726.88;207416;1316;140890;-71
2022/01/19 09:08:59;;;;;;;31.90;16.90;;;;;;;2.11;82.29;100716.48;207920;1314;141850;-71
2022/01/19 09:14:06;;;;;;;22.50;13.50;;;;;;;2.09;82.27;100711.08;207707;1316;141690;-73
2022/01/19 09:19:14;;;;;;;23.80;14.40;;;;;;;2.07;82.28;100716.05;208052;1317;139773;-71
2022/01/19 09:24:23;;;;;;;18.60;10.50;;;;;;;2.12;82.25;100714.38;207370;1316;140849;-69
2022/01/19 09:29:32;;;;;;;25.30;14.20;;;;;;;2.14;81.95;100714.41;207556;1318;143304;-70
2022/01/19 09:34:35;;;;;;;21.50;13.60;;;;;;;2.12;82.42;100711.63;207992;1316;143046;-71
2022/01/19 09:39:46;;;;;;;22.00;15.70;;;;;;;2.18;82.04;100695.39;207417;1317;141317;-71
2022/01/19 09:44:50;;;;;;;26.60;15.70;;;;;;;2.21;81.88;100687.52;208110;1317;142618;-71
2022/01/19 09:49:56;;;;;;;24.30;12.10;;;;;;;2.23;82.12;100679.95;207520;1317;141385;-68
2022/01/19 09:55:00;;;;;;;23.70;16.90;;;;;;;2.29;81.80;100663.58;207586;1318;142616;-71
2022/01/19 10:00:03;;;;;;;28.30;17.10;;;;;;;2.37;82.01;100654.51;209029;1316;514137;-72
2022/01/19 10:05:08;;;;;;;31.00;15.70;;;;;;;2.43;82.05;100641.97;208280;1316;139562;-72
2022/01/19 10:10:26;;;;;;;30.20;17.00;;;;;;;2.47;81.93;100644.67;209377;1315;140898;-73
2022/01/19 10:21:13;;;;;;;25.60;16.50;;;;;;;2.61;81.83;100641.26;208640;1316;140607;-72
2022/01/19 10:26:27;;;;;;;28.10;13.30;;;;;;;2.62;81.48;100628.72;208087;1316;139518;-71
2022/01/19 10:31:43;;;;;;;23.60;14.30;;;;;;;2.63;81.24;100620.10;207976;1316;142225;-71
2022/01/19 10:36:55;;;;;;;23.70;14.00;;;;;;;2.63;81.38;100619.61;207552;1316;141391;-72
2022/01/19 10:42:03;;;;;;;27.10;14.20;;;;;;;2.63;81.12;100605.89;207230;1318;139755;-71
2022/01/19 10:47:15;;;;;;;23.90;14.30;;;;;;;2.65;81.23;100605.06;208435;1317;141520;-73
2022/01/19 10:52:36;;;;;;;26.20;14.00;;;;;;;2.68;81.17;100601.72;207987;1318;140848;-72
2022/01/19 10:57:42;;;;;;;24.10;15.70;;;;;;;2.65;81.10;100597.99;208210;1315;142610;-70
2022/01/19 11:02:47;;;;;;;23.80;15.40;;;;;;;2.67;81.16;100587.46;207565;1317;141056;-71
2022/01/19 11:07:52;;;;;;;16.60;13.20;;;;;;;2.68;81.23;100568.95;208269;1316;140357;-73
2022/01/19 11:13:00;;;;;;;21.40;14.30;;;;;;;2.69;81.11;100566.02;207200;1317;140352;-70
2022/01/19 11:18:04;;;;;;;23.90;12.80;;;;;;;2.66;80.82;100554.56;207454;1318;141552;-69
2022/01/19 11:24:03;;;;;;;;;;;;;;;;;;;;;
2022/01/19 11:29:43;;;;;;;13.60;10.00;;;;;;;2.68;81.27;100536.56;207819;1318;138992;-73
2022/01/19 11:34:52;;;;;;;22.70;12.50;;;;;;;2.77;81.17;100520.39;207453;1318;142181;-73
2022/01/19 11:40:11;;;;;;;20.50;12.90;;;;;;;2.84;80.86;100500.77;207641;1316;140988;-73
2022/01/19 11:45:37;;;;;;;25.50;15.60;;;;;;;2.84;80.97;100490.50;207658;1317;139373;-72
2022/01/19 11:50:41;;;;;;;25.30;14.60;;;;;;;2.80;80.96;100483.89;207202;1317;139648;-72
2022/01/19 11:56:09;;;;;;;23.40;13.90;;;;;;;2.78;80.74;100474.30;207587;1317;141531;-69
2022/01/19 12:01:22;;;;;;;16.10;11.20;;;;;;;2.82;80.74;100468.22;207969;1318;139907;-72
2022/01/19 12:06:51;;;;;;;31.60;15.80;;;;;;;2.75;80.72;100455.31;207968;1316;139371;-72
2022/01/19 12:12:24;;;;;;;;;;;;;;;;;;;;;
2022/01/19 12:17:57;;;;;;;22.00;13.40;;;;;;;2.73;80.64;100432.36;208629;1319;141646;-72
2022/01/19 12:23:52;;;;;;;28.90;15.10;;;;;;;2.69;80.84;100423.27;208347;1316;141009;-71
2022/01/19 12:28:57;;;;;;;23.10;14.70;;;;;;;2.69;80.68;100413.89;207994;1318;140287;-68
2022/01/19 12:34:26;;;;;;;20.40;13.00;;;;;;;2.67;80.28;100408.04;209583;1316;140534;-72
2022/01/19 12:39:32;;;;;;;21.10;12.90;;;;;;;2.66;80.26;100403.92;208223;1319;140652;-70
2022/01/19 12:44:42;;;;;;;27.50;14.90;;;;;;;2.58;80.35;100397.81;208392;1316;161680;-72
2022/01/19 12:49:50;;;;;;;22.60;14.60;;;;;;;2.57;80.13;100387.81;207461;1317;140763;-71
2022/01/19 12:54:56;;;;;;;22.90;14.80;;;;;;;2.59;80.23;100384.91;207236;1317;140459;-70
2022/01/19 13:00:08;;;;;;;23.10;13.70;;;;;;;2.58;80.65;100378.89;208714;1317;141161;-74
2022/01/19 13:05:15;;;;;;;25.30;14.40;;;;;;;2.59;80.60;100376.52;208365;1315;141809;-72
2022/01/19 13:10:34;;;;;;;20.70;14.70;;;;;;;2.64;80.54;100372.44;208300;1318;141728;-72
2022/01/19 13:16:18;;;;;;;21.70;15.10;;;;;;;2.64;80.53;100366.29;208298;1316;141317;-72
2022/01/19 13:21:25;;;;;;;25.80;14.00;;;;;;;2.64;80.51;100353.61;207920;1316;205681;-71
2022/01/19 13:27:10;;;;;;;23.70;14.10;;;;;;;2.63;80.50;100342.44;208022;1317;140300;-72
2022/01/19 13:32:22;;;;;;;20.60;13.10;;;;;;;2.63;80.27;100328.52;206204;1324;139809;-72
2022/01/19 13:37:58;;;;;;;25.30;15.30;;;;;;;2.61;80.53;100316.29;207127;1318;140339;-72
2022/01/19 13:43:04;;;;;;;23.70;16.40;;;;;;;2.57;80.53;100308.49;207536;1316;140645;-72
2022/01/19 13:48:28;;;;;;;26.60;15.50;;;;;;;2.58;80.39;100294.27;206685;1318;140210;-70
2022/01/19 13:53:46;;;;;;;34.90;17.80;;;;;;;2.60;80.33;100292.86;208244;1316;142501;-66
2022/01/19 13:58:59;;;;;;;24.60;14.60;;;;;;;2.60;80.39;100285.16;207970;1317;139793;-70
2022/01/19 14:04:07;;;;;;;21.90;13.40;;;;;;;2.56;80.17;100277.02;207555;1316;140832;-69
2022/01/19 14:09:20;;;;;;;26.80;15.50;;;;;;;2.44;80.05;100257.45;207142;1315;234311;-72
2022/01/19 14:14:35;;;;;;;54.00;22.40;;;;;;;2.36;80.04;100250.25;207949;1317;140420;-67
2022/01/19 14:19:49;;;;;;;53.50;30.80;;;;;;;2.31;80.28;100244.63;208272;1317;141746;-72
2022/01/19 14:25:35;;;;;;;24.50;16.60;;;;;;;2.28;80.26;100229.88;207920;1317;141286;-70
2022/01/19 14:30:47;;;;;;;29.70;21.30;;;;;;;2.32;80.18;100216.29;209304;1316;140490;-71
2022/01/19 14:36:29;;;;;;;23.10;15.30;;;;;;;2.34;80.10;100211.05;209447;1317;140220;-74
2022/01/19 14:41:37;;;;;;;23.80;15.80;;;;;;;2.31;80.39;100191.92;209387;1318;163356;-73
2022/01/19 14:47:35;;;;;;;22.50;13.60;;;;;;;2.21;80.13;100169.83;207462;1318;142476;-71
2022/01/19 14:52:38;;;;;;;25.60;14.50;;;;;;;2.09;80.15;100170.17;208336;1318;140696;-71
2022/01/19 14:57:43;;;;;;;30.20;16.30;;;;;;;2.02;79.98;100165.88;209416;1317;140905;-71
2022/01/19 15:02:57;;;;;;;23.70;15.60;;;;;;;1.91;79.73;100161.63;208809;1316;139955;-68
2022/01/19 15:08:01;;;;;;;26.60;14.90;;;;;;;1.79;79.99;100146.52;209304;1318;140214;-71
2022/01/19 15:13:05;;;;;;;26.80;15.80;;;;;;;1.65;79.94;100135.55;207826;1317;140644;-66
2022/01/19 15:18:09;;;;;;;27.30;15.60;;;;;;;1.56;80.04;100125.89;207180;1316;139700;-66
2022/01/19 15:23:13;;;;;;;27.20;15.90;;;;;;;1.52;80.40;100106.31;208193;1315;141790;-66
2022/01/19 15:28:17;;;;;;;27.50;17.10;;;;;;;1.47;80.42;100092.08;207270;1317;139958;-70
2022/01/19 15:33:20;;;;;;;31.50;16.00;;;;;;;1.36;80.34;100083.39;206933;1317;140304;-67
2022/01/19 15:38:28;;;;;;;30.90;15.30;;;;;;;1.27;80.52;100067.58;207692;1317;139531;-69
2022/01/19 15:43:33;;;;;;;34.30;16.10;;;;;;;1.17;80.48;100055.91;207643;1317;140651;-66
2022/01/19 15:48:36;;;;;;;29.30;17.40;;;;;;;1.14;80.76;100051.52;207086;1317;140503;-68
2022/01/19 15:53:39;;;;;;;39.40;30.20;;;;;;;1.08;80.88;100040.78;206987;1318;140084;-71
2022/01/19 15:58:41;;;;;;;35.40;22.00;;;;;;;1.00;81.01;100031.50;206850;1318;140221;-68
2022/01/19 16:03:44;;;;;;;33.70;19.70;;;;;;;0.88;80.86;100024.77;206706;1318;139672;-68
2022/01/19 16:08:50;;;;;;;35.40;18.80;;;;;;;0.78;81.18;100017.16;207442;1318;139767;-70
2022/01/19 16:13:54;;;;;;;34.90;20.40;;;;;;;0.72;80.99;100007.77;208311;1317;142115;-68
2022/01/19 16:19:09;;;;;;;34.20;18.30;;;;;;;0.72;81.03;99994.39;208700;1317;141020;-68
2022/01/19 16:29:35;;;;;;;31.10;15.10;;;;;;;0.65;81.48;99980.19;207231;1317;139964;-67
2022/01/19 16:34:39;;;;;;;28.00;15.70;;;;;;;0.60;81.41;99977.42;207778;1318;140183;-68
2022/01/19 16:39:46;;;;;;;33.00;17.40;;;;;;;0.55;81.38;99975.65;207003;1318;140418;-66
2022/01/19 16:44:53;;;;;;;28.70;16.70;;;;;;;0.51;81.50;99961.30;208625;1317;143243;-68
2022/01/19 16:49:56;;;;;;;27.50;15.60;;;;;;;0.45;81.42;99943.39;209087;1318;140340;-70
2022/01/19 16:55:00;;;;;;;27.80;15.40;;;;;;;0.41;81.53;99933.71;209381;1315;140617;-68
2022/01/19 17:00:07;;;;;;;32.40;16.50;;;;;;;0.38;81.54;99934.56;208507;1314;139944;-69
2022/01/19 17:05:13;;;;;;;26.40;17.00;;;;;;;0.39;81.56;99926.56;208305;1318;139730;-68
2022/01/19 17:10:17;;;;;;;31.70;16.20;;;;;;;0.40;81.38;99913.39;207419;1318;140748;-68
2022/01/19 17:15:38;;;;;;;37.30;17.40;;;;;;;0.36;81.44;99906.53;206885;1318;141985;-68
2022/01/19 17:20:45;;;;;;;35.50;17.40;;;;;;;0.29;81.28;99903.29;208221;1316;141483;-68
2022/01/19 17:25:51;;;;;;;38.90;17.60;;;;;;;0.28;81.53;99898.14;207359;1315;140599;-67
2022/01/19 17:31:05;;;;;;;29.60;17.10;;;;;;;0.29;81.63;99893.88;206805;1317;139509;-66
2022/01/19 17:36:09;;;;;;;30.40;17.40;;;;;;;0.23;81.39;99875.08;207959;1314;140263;-66
2022/01/19 17:41:13;;;;;;;29.80;16.80;;;;;;;0.16;81.35;99852.06;207701;1318;139590;-73
2022/01/19 17:47:14;;;;;;;32.80;17.40;;;;;;;0.12;81.41;99834.77;207494;1318;140978;-70
2022/01/19 17:51:46;;;;;;;33.90;18.40;;;;;;;0.10;81.36;99818.02;207050;1319;142543;-67
2022/01/19 17:56:49;;;;;;;29.90;18.40;;;;;;;0.03;81.35;99801.41;207142;1317;140012;-67
2022/01/19 18:01:53;;;;;;;34.20;18.20;;;;;;;-0.03;81.66;99790.39;206426;1316;426314;-66
2022/01/19 18:06:57;;;;;;;32.30;18.20;;;;;;;-0.10;81.37;99774.38;206815;1318;140666;-68
2022/01/19 18:11:59;;;;;;;36.00;18.50;;;;;;;-0.14;81.55;99766.59;207569;1319;141003;-66
2022/01/19 18:17:04;;;;;;;37.00;19.80;;;;;;;-0.14;81.43;99757.02;207274;1316;140579;-67
2022/01/19 18:22:09;;;;;;;40.50;20.50;;;;;;;-0.15;81.58;99738.78;208072;1316;141878;-67
2022/01/19 18:27:13;;;;;;;30.40;17.40;;;;;;;-0.18;81.64;99715.37;206683;1315;141359;-66
2022/01/19 18:32:20;;;;;;;33.60;17.50;;;;;;;-0.23;81.74;99704.70;207010;1317;205410;-67
2022/01/19 18:37:24;;;;;;;35.90;20.70;;;;;;;-0.22;81.69;99702.14;209451;1318;140615;-69
2022/01/19 18:42:27;;;;;;;36.30;21.70;;;;;;;-0.20;81.68;99681.15;209370;1318;140532;-68
2022/01/19 18:47:31;;;;;;;36.90;20.90;;;;;;;-0.20;81.68;99665.10;209695;1318;140733;-72
2022/01/19 18:52:37;;;;;;;27.40;17.70;;;;;;;-0.19;81.59;99667.13;208581;1318;140460;-69
2022/01/19 18:57:41;;;;;;;33.30;18.80;;;;;;;-0.22;81.46;99657.11;208603;1318;139951;-70
2022/01/19 19:02:47;;;;;;;35.20;21.10;;;;;;;-0.23;81.21;99644.77;209428;1317;143330;-70
2022/01/19 19:07:52;;;;;;;29.20;18.90;;;;;;;-0.21;81.21;99631.73;209175;1317;140863;-70
2022/01/19 19:12:58;;;;;;;37.50;18.70;;;;;;;-0.23;81.58;99630.83;208590;1317;141212;-70
2022/01/19 19:18:02;;;;;;;35.90;17.70;;;;;;;-0.24;81.30;99626.99;208251;1318;140125;-69
2022/01/19 19:23:06;;;;;;;26.50;15.40;;;;;;;-0.27;81.28;99618.71;207058;1318;139774;-68
2022/01/19 19:28:10;;;;;;;28.60;17.20;;;;;;;-0.27;81.17;99612.79;207646;1317;141018;-68
2022/01/19 19:33:14;;;;;;;32.60;19.40;;;;;;;-0.31;81.12;99614.64;207415;1318;141039;-66
2022/01/19 19:38:17;;;;;;;28.30;14.90;;;;;;;-0.36;81.22;99607.33;207718;1318;140373;-66
2022/01/19 19:43:20;;;;;;;27.30;16.50;;;;;;;-0.39;81.19;99594.21;207753;1317;140591;-66
2022/01/19 19:48:23;;;;;;;38.10;17.90;;;;;;;-0.37;81.04;99583.02;207870;1316;141449;-67
2022/01/19 19:53:27;;;;;;;24.80;15.70;;;;;;;-0.37;81.06;99576.17;207027;1317;140715;-67
2022/01/19 19:58:31;;;;;;;31.60;16.90;;;;;;;-0.41;81.15;99578.48;207326;1318;140839;-65
2022/01/19 20:03:34;;;;;;;29.50;16.70;;;;;;;-0.45;81.11;99564.63;207854;1319;141387;-66
2022/01/19 20:08:38;;;;;;;38.30;17.80;;;;;;;-0.51;80.91;99558.72;206903;1320;139837;-65
2022/01/19 20:38:57;;;;;;;37.20;20.60;;;;;;;-1.06;81.76;99516.44;207997;1357;659672;-68
2022/01/19 20:43:59;;;;;;;31.40;18.30;;;;;;;-1.12;81.59;99508.75;207281;1329;140106;-68
2022/01/19 20:49:02;;;;;;;30.80;17.40;;;;;;;-1.06;81.59;99505.15;206702;1329;434268;-67
2022/01/19 20:54:05;;;;;;;36.10;19.20;;;;;;;-1.01;81.49;99497.56;207147;1325;148861;-66
2022/01/19 20:59:08;;;;;;;28.40;17.80;;;;;;;-0.98;81.45;99487.10;206442;1325;140766;-68
2022/01/19 21:04:12;;;;;;;29.00;17.10;;;;;;;-0.97;81.42;99474.27;206322;1326;158324;-67
2022/01/19 21:09:17;;;;;;;37.20;20.90;;;;;;;-0.93;81.24;99468.94;206402;1325;139800;-70
2022/01/19 21:14:21;;;;;;;40.30;21.00;;;;;;;-0.87;81.33;99474.52;206323;1322;139631;-70
2022/01/19 21:19:24;;;;;;;31.80;18.50;;;;;;;-0.80;81.62;99471.14;206349;1325;141015;-69
2022/01/19 21:24:27;;;;;;;39.70;22.90;;;;;;;-0.73;81.53;99464.98;206212;1325;139059;-66
2022/01/19 21:29:31;;;;;;;19.60;11.10;;;;;;;-0.64;81.48;99454.94;206210;1326;140008;-68
2022/01/19 21:34:35;;;;;;;22.90;14.80;;;;;;;-0.55;81.22;99450.70;205519;1326;141017;-66
2022/01/19 21:39:39;;;;;;;34.00;17.70;;;;;;;-0.47;81.48;99441.80;205759;1326;139882;-66
2022/01/19 21:44:43;;;;;;;30.70;16.50;;;;;;;-0.42;81.47;99434.58;205383;1328;140987;-66
2022/01/19 21:49:47;;;;;;;31.00;16.50;;;;;;;-0.32;81.22;99432.14;205624;1326;142216;-66
2022/01/19 21:54:52;;;;;;;29.60;17.30;;;;;;;-0.25;81.23;99429.89;205207;1326;139624;-68
2022/01/19 21:59:56;;;;;;;32.80;17.10;;;;;;;-0.21;81.26;99420.86;205610;1326;140405;-65
2022/01/19 22:04:59;;;;;;;32.10;19.00;;;;;;;-0.12;81.12;99414.10;205268;1325;140320;-66
2022/01/19 22:10:04;;;;;;;31.30;20.50;;;;;;;-0.05;81.24;99404.23;206887;1319;139188;-66
2022/01/19 22:15:09;;;;;;;30.40;17.20;;;;;;;-0.01;81.16;99399.52;208662;1319;139410;-67
2022/01/19 22:20:15;;;;;;;29.30;17.20;;;;;;;0.03;81.41;99388.95;206918;1320;139802;-66
2022/01/19 22:25:19;;;;;;;31.50;17.30;;;;;;;0.09;81.15;99375.33;208670;1318;139073;-65
2022/01/19 22:30:25;;;;;;;23.50;15.90;;;;;;;0.19;81.09;99355.63;208680;1319;141180;-67
2022/01/19 22:35:31;;;;;;;26.60;17.90;;;;;;;0.27;80.95;99341.27;208751;1319;140293;-67
2022/01/19 22:40:35;;;;;;;36.30;18.70;;;;;;;0.30;80.96;99341.20;209156;1319;138565;-68
2022/01/19 22:45:37;;;;;;;25.00;15.40;;;;;;;0.40;80.46;99335.72;208417;1319;141111;-67
2022/01/19 22:50:41;;;;;;;32.80;17.20;;;;;;;0.43;80.56;99329.77;207690;1319;141165;-68
2022/01/19 22:55:44;;;;;;;34.00;17.90;;;;;;;0.48;80.59;99317.20;209245;1319;139328;-68
2022/01/19 23:00:47;;;;;;;22.50;13.30;;;;;;;0.52;80.63;99307.59;209558;1319;141046;-69
2022/01/19 23:05:54;;;;;;;;;;;;;;;0.58;80.51;99288.84;207814;1319;139528;-67
2022/01/19 23:10:58;;;;;;;25.20;14.60;;;;;;;0.61;80.39;99279.79;208978;1319;126930;-68
2022/01/19 23:16:03;;;;;;;20.50;14.20;;;;;;;0.61;80.28;99268.54;208234;1319;140266;-69
2022/01/19 23:21:06;;;;;;;28.20;15.70;;;;;;;0.62;80.16;99264.37;207720;1319;140455;-67
2022/01/19 23:26:09;;;;;;;26.00;16.90;;;;;;;0.64;80.17;99259.10;207796;1319;141438;-70
2022/01/19 23:31:12;;;;;;;28.80;16.10;;;;;;;0.62;80.14;99245.00;207859;1319;139574;-68
2022/01/19 23:36:48;;;;;;;28.50;15.80;;;;;;;0.60;79.94;99232.52;207765;1319;139681;-67
2022/01/19 23:52:34;;;;;;;24.60;12.80;;;;;;;0.66;80.09;99206.68;207341;1319;140000;-68
2022/01/19 23:57:44;;;;;;;25.90;15.90;;;;;;;0.68;80.05;99198.79;207837;1318;150387;-66
